Time;durP1;ratioP1;P1;durP2;ratioP2;P2;SDS_P1;SDS_P2;PMS_P1;PMS_P2;Temp;Humidity;BMP_temperature;BMP_pressure;BME280_temperature;BME280_humidity;BME280_pressure;Samples;Min_cycle;Max_cycle;Signal;HPM_P1;HPM_P2
2021/12/11 00:02:02;;;;;;;58.88;32.95;;;;;;;4.98;100.00;100533.66;5117331;27;20036;-73
2021/12/11 00:04:32;;;;;;;54.78;31.40;;;;;;;5.19;100.00;100534.75;5126646;27;20083;-73
2021/12/11 00:07:03;;;;;;;44.83;28.83;;;;;;;5.33;100.00;100533.28;5104549;27;20547;-73
2021/12/11 00:09:35;;;;;;;62.55;32.88;;;;;;;4.99;100.00;100539.94;5124042;27;20168;-73
2021/12/11 00:12:10;;;;;;;60.83;33.22;;;;;;;4.95;100.00;100555.91;5105848;27;20042;-73
2021/12/11 00:14:39;;;;;;;69.45;33.83;;;;;;;4.82;100.00;100557.09;5087295;27;20027;-73
2021/12/11 00:17:06;;;;;;;57.05;32.30;;;;;;;5.05;100.00;100561.50;5107459;27;20120;-72
2021/12/11 00:19:37;;;;;;;55.10;32.38;;;;;;;5.24;100.00;100569.31;5130021;27;20033;-73
2021/12/11 00:22:16;;;;;;;54.53;31.52;;;;;;;5.34;100.00;100574.88;5147263;27;21317;-72
2021/12/11 00:24:42;;;;;;;62.08;32.88;;;;;;;5.26;100.00;100584.31;5123020;27;20353;-73
2021/12/11 00:27:25;;;;;;;53.53;30.20;;;;;;;5.35;100.00;100584.69;5120882;27;20041;-72
2021/12/11 00:29:52;;;;;;;55.72;31.88;;;;;;;5.44;100.00;100596.72;5145859;27;20384;-72
2021/12/11 00:32:26;;;;;;;48.30;31.77;;;;;;;5.48;100.00;100606.03;5145511;27;20177;-73
2021/12/11 00:34:57;;;;;;;53.92;31.70;;;;;;;5.47;100.00;100600.84;5126308;27;20030;-72
2021/12/11 00:37:27;;;;;;;58.03;33.55;;;;;;;5.47;100.00;100607.09;5125010;27;20019;-72
2021/12/11 00:40:00;;;;;;;51.40;31.17;;;;;;;5.47;100.00;100609.81;5123367;27;20057;-72
2021/12/11 00:42:33;;;;;;;53.15;34.03;;;;;;;5.56;100.00;100612.94;5120789;27;20035;-72
2021/12/11 00:45:01;;;;;;;;;;;;;;;5.43;100.00;100616.84;5140348;27;20030;-72
2021/12/11 00:47:32;;;;;;;54.22;30.45;;;;;;;5.45;100.00;100614.69;5143015;27;19945;-71
2021/12/11 00:50:07;;;;;;;46.03;28.55;;;;;;;5.48;100.00;100618.81;5139197;27;20043;-73
2021/12/11 00:52:38;;;;;;;43.97;27.05;;;;;;;5.50;100.00;100622.09;5124574;27;20046;-72
2021/12/11 00:55:18;;;;;;;53.33;29.90;;;;;;;5.52;100.00;100626.19;5125508;27;20058;-73
2021/12/11 00:57:45;;;;;;;51.30;31.20;;;;;;;5.56;100.00;100626.53;5106743;27;20835;-73
2021/12/11 01:00:19;;;;;;;42.50;26.95;;;;;;;5.56;100.00;100637.41;5118928;27;20444;-73
2021/12/11 01:02:46;;;;;;;50.35;29.60;;;;;;;5.58;100.00;100648.84;5123357;27;20114;-73
2021/12/11 01:05:11;;;;;;;51.67;29.63;;;;;;;5.62;100.00;100651.88;5106801;27;20063;-73
2021/12/11 01:07:37;;;;;;;53.05;30.98;;;;;;;5.61;100.00;100658.41;5105058;27;20062;-73
2021/12/11 01:10:33;;;;;;;44.55;28.45;;;;;;;5.52;100.00;100668.91;5124793;27;20081;-74
2021/12/11 01:13:03;;;;;;;57.22;31.00;;;;;;;5.56;100.00;100666.47;5124080;27;20027;-73
2021/12/11 01:15:44;;;;;;;48.92;29.45;;;;;;;5.61;100.00;100667.38;5106264;27;20043;-73
2021/12/11 01:24:10;;;;;;;47.45;29.80;;;;;;;5.61;100.00;100678.25;5020040;28;20550;-74
2021/12/11 01:26:41;;;;;;;57.30;31.20;;;;;;;5.55;100.00;100673.00;5099222;27;20035;-72
2021/12/11 01:29:08;;;;;;;47.13;28.25;;;;;;;5.47;100.00;100677.00;5121417;27;20028;-74
2021/12/11 01:31:34;;;;;;;56.40;31.73;;;;;;;5.46;100.00;100687.06;5125067;27;20436;-73
2021/12/11 01:34:00;;;;;;;51.78;29.08;;;;;;;5.33;100.00;100695.56;5109300;27;20023;-73
2021/12/11 01:36:27;;;;;;;49.67;29.45;;;;;;;5.41;100.00;100702.47;5128426;27;20029;-73
2021/12/11 01:38:55;;;;;;;45.15;29.55;;;;;;;5.47;100.00;100706.91;5102824;27;20032;-73
2021/12/11 01:41:24;;;;;;;45.40;28.27;;;;;;;5.49;100.00;100719.19;5132219;27;20106;-73
2021/12/11 01:43:53;;;;;;;41.88;27.55;;;;;;;5.50;100.00;100714.56;5134272;27;20363;-73
2021/12/11 01:46:22;;;;;;;48.85;29.05;;;;;;;5.47;100.00;100715.06;5144847;27;20382;-73
2021/12/11 01:48:50;;;;;;;53.25;28.08;;;;;;;5.47;100.00;100720.50;5123508;27;20050;-73
2021/12/11 01:51:36;;;;;;;39.25;25.08;;;;;;;5.46;100.00;100740.59;5107984;27;20027;-73
2021/12/11 01:54:02;;;;;;;55.28;30.33;;;;;;;5.43;100.00;100744.66;5126423;27;20050;-72
2021/12/11 01:56:31;;;;;;;49.22;29.50;;;;;;;5.41;100.00;100744.09;5101580;27;20477;-73
2021/12/11 01:59:05;;;;;;;55.53;30.73;;;;;;;5.33;100.00;100752.66;5087778;27;20035;-73
2021/12/11 02:02:08;;;;;;;48.95;28.92;;;;;;;5.24;100.00;100756.88;5117326;27;20022;-73
2021/12/11 02:04:37;;;;;;;45.65;28.05;;;;;;;5.24;100.00;100759.59;5024614;28;20093;-73
2021/12/11 02:07:08;;;;;;;50.65;28.90;;;;;;;5.26;100.00;100762.88;5128297;27;20042;-73
2021/12/11 02:09:38;;;;;;;49.10;28.63;;;;;;;5.21;100.00;100762.78;5144005;27;20036;-72
2021/12/11 02:12:13;;;;;;;47.85;27.92;;;;;;;5.23;100.00;100777.81;5115858;27;20023;-73
2021/12/11 02:14:45;;;;;;;45.45;27.38;;;;;;;5.29;100.00;100778.69;5124593;27;20532;-72
2021/12/11 02:17:20;;;;;;;42.53;26.83;;;;;;;5.31;100.00;100785.53;5143831;27;20185;-72
2021/12/11 02:19:47;;;;;;;43.33;27.20;;;;;;;5.40;100.00;100785.13;5114573;27;20029;-72
2021/12/11 02:22:20;;;;;;;49.97;28.50;;;;;;;5.34;100.00;100789.63;5113207;27;20388;-73
2021/12/11 02:24:55;;;;;;;48.05;28.70;;;;;;;5.34;100.00;100781.47;5139013;27;20034;-73
2021/12/11 02:27:23;;;;;;;40.53;24.73;;;;;;;5.34;100.00;100787.75;5115626;27;20061;-73
2021/12/11 02:29:54;;;;;;;40.63;25.48;;;;;;;5.22;100.00;100799.78;5125677;27;20023;-73
2021/12/11 02:32:35;;;;;;;42.85;28.02;;;;;;;5.17;100.00;100800.53;5107412;27;20548;-73
2021/12/11 02:35:08;;;;;;;59.70;30.33;;;;;;;5.04;100.00;100798.13;5134145;27;20050;-72
2021/12/11 02:37:49;;;;;;;42.17;26.33;;;;;;;4.97;100.00;100807.25;5124490;27;20016;-73
2021/12/11 02:40:25;;;;;;;39.80;26.38;;;;;;;4.94;100.00;100807.75;5126498;27;20134;-73
2021/12/11 02:43:04;;;;;;;40.65;26.25;;;;;;;4.96;100.00;100821.91;5105055;27;20396;-73
2021/12/11 02:45:33;;;;;;;49.22;27.90;;;;;;;4.98;100.00;100810.78;5106530;27;20035;-74
2021/12/11 02:48:15;;;;;;;47.47;28.17;;;;;;;4.90;100.00;100822.91;5110949;27;20030;-73
2021/12/11 02:51:04;;;;;;;49.22;29.42;;;;;;;4.78;100.00;100824.84;5124598;27;20038;-74
2021/12/11 02:53:36;;;;;;;41.92;26.27;;;;;;;4.91;100.00;100826.44;5145086;27;20030;-73
2021/12/11 02:56:07;;;;;;;42.25;26.60;;;;;;;5.01;100.00;100821.19;5122805;27;20037;-74
2021/12/11 02:58:37;;;;;;;47.63;29.05;;;;;;;4.93;100.00;100829.72;5124941;27;20110;-72
2021/12/11 03:01:12;;;;;;;45.70;28.77;;;;;;;4.93;100.00;100824.31;5144665;27;20469;-73
2021/12/11 03:03:44;;;;;;;48.38;26.33;;;;;;;5.07;100.00;100822.91;5137862;27;20022;-74
2021/12/11 03:06:23;;;;;;;47.83;26.77;;;;;;;5.13;100.00;100818.38;5104757;27;20023;-74
2021/12/11 03:08:51;;;;;;;41.83;25.92;;;;;;;4.96;100.00;100827.34;5094020;27;20035;-73
2021/12/11 03:11:20;;;;;;;50.25;28.63;;;;;;;4.96;100.00;100823.81;5138001;27;20456;-73
2021/12/11 03:13:51;;;;;;;46.83;27.15;;;;;;;5.09;100.00;100826.22;5132734;27;20042;-73
2021/12/11 03:16:23;;;;;;;45.72;26.25;;;;;;;5.13;100.00;100821.09;5120995;27;20018;-73
2021/12/11 03:18:49;;;;;;;44.40;26.77;;;;;;;5.15;100.00;100821.69;5128477;27;20031;-73
2021/12/11 03:21:15;;;;;;;43.25;26.75;;;;;;;5.15;100.00;100829.84;5133005;27;20050;-73
2021/12/11 03:23:41;;;;;;;47.00;27.05;;;;;;;5.11;100.00;100832.22;5137343;27;20355;-73
2021/12/11 03:26:06;;;;;;;45.33;26.92;;;;;;;5.15;100.00;100846.16;5145673;27;20420;-73
2021/12/11 03:28:32;;;;;;;41.30;25.48;;;;;;;5.24;100.00;100841.13;5146380;27;20117;-74
2021/12/11 03:31:00;;;;;;;48.40;27.80;;;;;;;5.02;100.00;100846.44;5144870;27;20316;-73
2021/12/11 03:33:30;;;;;;;43.78;25.65;;;;;;;5.18;100.00;100845.66;5147461;27;20030;-73
2021/12/11 03:35:56;;;;;;;47.97;25.73;;;;;;;5.23;100.00;100844.91;5127634;27;20513;-73
2021/12/11 03:38:25;;;;;;;45.75;26.23;;;;;;;5.34;100.00;100852.16;5148617;27;20491;-72
2021/12/11 03:40:51;;;;;;;45.78;25.80;;;;;;;5.38;100.00;100847.91;5110910;27;20023;-72
2021/12/11 03:43:21;;;;;;;57.42;29.85;;;;;;;5.37;100.00;100848.97;5126452;27;20038;-73
2021/12/11 03:45:50;;;;;;;52.30;27.58;;;;;;;5.28;100.00;100848.56;5145827;27;20027;-73
2021/12/11 03:48:21;;;;;;;46.65;26.45;;;;;;;5.38;100.00;100849.78;5125795;27;20019;-73
2021/12/11 03:50:47;;;;;;;42.47;25.08;;;;;;;5.39;100.00;100852.25;5125816;27;20150;-72
2021/12/11 03:53:14;;;;;;;47.53;25.58;;;;;;;5.47;100.00;100842.84;5128090;27;20522;-73
2021/12/11 03:55:49;;;;;;;52.22;28.45;;;;;;;5.12;100.00;100852.09;5088836;27;20046;-73
2021/12/11 03:58:15;;;;;;;41.30;24.55;;;;;;;5.29;100.00;100849.38;5126062;27;20106;-73
2021/12/11 04:01:06;;;;;;;48.67;26.10;;;;;;;5.29;100.00;100849.38;5125563;27;20172;-72
2021/12/11 04:03:35;;;;;;;51.97;24.80;;;;;;;5.22;100.00;100846.81;5131332;27;20034;-73
2021/12/11 04:06:04;;;;;;;50.85;25.75;;;;;;;5.23;100.00;100858.50;5145460;27;20227;-73
2021/12/11 04:08:37;;;;;;;32.45;13.70;;;;;;;5.07;100.00;100863.69;5115618;27;20022;-73
2021/12/11 04:11:03;;;;;;;;;;;;;;;5.32;100.00;100865.19;5117669;27;20272;-72
2021/12/11 04:13:28;;;;;;;29.55;10.35;;;;;;;5.37;100.00;100862.56;5131294;27;19915;-73
2021/12/11 04:15:55;;;;;;;25.73;8.20;;;;;;;5.80;100.00;100858.31;5124887;27;20110;-72
2021/12/11 04:18:20;;;;;;;16.20;3.67;;;;;;;6.10;100.00;100864.47;5128001;27;20145;-74
2021/12/11 04:20:48;;;;;;;23.30;2.97;;;;;;;6.34;100.00;100867.78;5125638;27;20098;-73
2021/12/11 04:23:15;;;;;;;11.50;1.95;;;;;;;6.66;100.00;100875.22;5112256;27;20022;-73
2021/12/11 04:25:46;;;;;;;21.38;2.67;;;;;;;6.83;100.00;100878.69;5125739;27;20030;-73
2021/12/11 04:28:12;;;;;;;15.02;2.40;;;;;;;6.77;100.00;100885.16;5129613;27;20441;-74
2021/12/11 04:30:39;;;;;;;18.92;2.63;;;;;;;6.81;100.00;100889.84;5147343;27;20057;-73
2021/12/11 04:33:06;;;;;;;18.58;2.40;;;;;;;6.80;100.00;100890.94;5096336;27;20043;-74
2021/12/11 04:35:32;;;;;;;17.98;2.55;;;;;;;6.95;100.00;100887.56;5147531;27;20026;-73
2021/12/11 04:38:00;;;;;;;14.45;2.28;;;;;;;6.83;100.00;100894.25;5146853;27;20088;-74
2021/12/11 04:40:34;;;;;;;12.05;1.98;;;;;;;7.05;100.00;100894.19;5125677;27;20034;-73
2021/12/11 04:43:06;;;;;;;14.60;2.08;;;;;;;7.02;100.00;100897.41;5143861;27;20506;-73
2021/12/11 04:45:47;;;;;;;11.95;3.28;;;;;;;7.02;100.00;100891.97;5112086;27;20037;-73
2021/12/11 04:48:47;;;;;;;13.50;2.25;;;;;;;7.03;100.00;100899.88;5130031;27;20117;-73
2021/12/11 04:51:36;;;;;;;19.38;2.40;;;;;;;7.02;100.00;100903.72;5103153;28;20054;-72
2021/12/11 04:57:06;;;;;;;14.45;2.47;;;;;;;7.15;100.00;100914.22;5091869;28;20019;-72
2021/12/11 04:59:52;;;;;;;12.50;2.35;;;;;;;7.39;100.00;100900.22;5094216;28;20024;-74
2021/12/11 05:10:56;;;;;;;17.48;2.88;;;;;;;7.34;100.00;100930.19;5039842;28;20487;-74
2021/12/11 05:13:25;;;;;;;15.98;2.97;;;;;;;7.38;100.00;100922.31;5082581;28;20405;-74
2021/12/11 05:15:52;;;;;;;13.55;2.35;;;;;;;7.35;100.00;100927.22;5083191;28;20028;-71
2021/12/11 05:18:20;;;;;;;11.93;2.08;;;;;;;7.24;100.00;100936.38;5085176;28;20039;-74
2021/12/11 05:20:53;;;;;;;11.77;2.60;;;;;;;7.13;100.00;100949.09;5084921;28;20030;-73
2021/12/11 05:23:19;;;;;;;12.88;2.53;;;;;;;7.09;100.00;100953.41;5087091;28;20054;-72
2021/12/11 05:25:47;;;;;;;13.20;2.35;;;;;;;7.08;100.00;100945.47;5081742;28;20205;-74
2021/12/11 05:28:14;;;;;;;14.13;2.28;;;;;;;7.29;100.00;100951.97;5087862;28;20063;-72
2021/12/11 05:30:46;;;;;;;17.48;2.33;;;;;;;7.01;100.00;100942.94;5064740;28;20306;-73
2021/12/11 05:33:13;;;;;;;13.40;2.50;;;;;;;7.02;100.00;100957.41;5082093;28;20661;-74
2021/12/11 05:35:40;;;;;;;15.10;2.40;;;;;;;7.15;100.00;100957.03;5083011;28;20123;-74
2021/12/11 05:38:08;;;;;;;15.15;2.45;;;;;;;6.98;100.00;100957.09;5082966;28;20028;-72
2021/12/11 05:40:35;;;;;;;11.95;2.00;;;;;;;7.33;100.00;100964.03;5081854;28;20165;-73
2021/12/11 05:43:01;;;;;;;12.30;2.10;;;;;;;6.95;100.00;100958.44;5080974;28;20206;-72
2021/12/11 05:45:27;;;;;;;13.60;2.45;;;;;;;6.93;100.00;100966.03;5084588;28;20327;-72
2021/12/11 05:47:53;;;;;;;10.63;2.45;;;;;;;7.07;100.00;100971.91;5085592;28;20149;-72
2021/12/11 05:50:25;;;;;;;9.07;2.25;;;;;;;6.92;100.00;100974.44;5099018;28;20048;-74
2021/12/11 05:52:53;;;;;;;8.45;2.40;;;;;;;7.05;100.00;100981.41;5102528;28;20016;-73
2021/12/11 05:55:22;;;;;;;15.10;2.00;;;;;;;7.02;100.00;100995.56;5076499;27;20078;-72
2021/12/11 05:57:54;;;;;;;12.52;2.22;;;;;;;7.11;100.00;101004.94;5100527;28;20035;-72
2021/12/11 06:00:27;;;;;;;12.37;2.40;;;;;;;7.10;100.00;101006.84;5105693;28;20450;-73
2021/12/11 06:02:54;;;;;;;16.40;2.10;;;;;;;7.16;100.00;100999.53;5104415;28;20027;-73
2021/12/11 06:05:21;;;;;;;13.75;2.72;;;;;;;7.18;100.00;101013.75;5101280;27;20034;-73
2021/12/11 06:07:46;;;;;;;8.60;2.25;;;;;;;7.18;100.00;101017.31;5125503;27;20107;-73
2021/12/11 06:10:17;;;;;;;16.08;2.22;;;;;;;7.28;100.00;101023.94;5121754;27;20369;-73
2021/12/11 06:12:45;;;;;;;17.50;2.88;;;;;;;6.95;100.00;101029.31;5121810;27;20504;-74
2021/12/11 06:15:11;;;;;;;12.27;1.80;;;;;;;7.17;100.00;101042.09;5107018;27;20035;-73
2021/12/11 06:17:40;;;;;;;13.15;1.77;;;;;;;7.10;100.00;101036.84;5105543;28;20023;-73
2021/12/11 06:20:08;;;;;;;11.82;1.70;;;;;;;7.10;100.00;101034.13;5104196;28;20102;-73
2021/12/11 06:22:36;;;;;;;16.48;3.00;;;;;;;7.04;100.00;101053.41;5104128;28;20038;-73
2021/12/11 06:25:06;;;;;;;15.68;2.28;;;;;;;7.04;100.00;101056.13;5120263;27;20110;-72
2021/12/11 06:27:32;;;;;;;15.13;2.60;;;;;;;7.05;100.00;101065.94;5123546;27;20027;-73
2021/12/11 06:29:58;;;;;;;11.65;2.80;;;;;;;7.11;100.00;101075.84;5124736;27;20035;-72
2021/12/11 06:32:25;;;;;;;12.45;3.13;;;;;;;7.10;100.00;101079.63;5126318;27;20398;-73
2021/12/11 06:34:56;;;;;;;9.43;2.88;;;;;;;7.10;100.00;101087.81;5124873;27;20477;-73
2021/12/11 06:37:21;;;;;;;13.48;3.53;;;;;;;6.93;100.00;101094.13;5125878;27;20630;-74
2021/12/11 06:39:55;;;;;;;10.60;2.90;;;;;;;6.81;100.00;101099.69;5125543;27;20103;-74
2021/12/11 06:42:21;;;;;;;7.93;2.67;;;;;;;6.89;100.00;101100.38;5106302;27;20027;-73
2021/12/11 06:44:47;;;;;;;10.30;3.05;;;;;;;6.98;100.00;101112.47;5134228;27;20061;-74
2021/12/11 06:47:15;;;;;;;16.85;4.13;;;;;;;6.91;100.00;101109.09;5131809;27;20034;-73
2021/12/11 06:49:41;;;;;;;10.68;2.83;;;;;;;6.69;100.00;101126.25;5131723;27;20496;-73
2021/12/11 06:52:16;;;;;;;8.02;3.00;;;;;;;6.79;100.00;101123.66;5114214;27;20042;-73
2021/12/11 06:54:42;;;;;;;7.00;3.40;;;;;;;6.75;100.00;101129.84;5110835;27;20023;-73
2021/12/11 06:57:09;;;;;;;6.68;3.28;;;;;;;6.98;100.00;101143.28;5113273;27;20048;-77
2021/12/11 06:59:36;;;;;;;10.30;3.85;;;;;;;6.89;100.00;101143.97;5093126;27;20027;-74
2021/12/11 07:02:02;;;;;;;11.65;4.25;;;;;;;6.71;100.00;101150.50;5111507;27;20056;-73
2021/12/11 07:04:28;;;;;;;12.23;4.13;;;;;;;6.74;100.00;101158.16;5113980;27;20028;-73
2021/12/11 07:06:55;;;;;;;9.05;4.80;;;;;;;6.63;100.00;101159.91;5116580;27;20035;-75
2021/12/11 07:09:24;;;;;;;12.57;5.10;;;;;;;6.79;100.00;101166.44;5114930;27;20108;-74
2021/12/11 07:11:55;;;;;;;18.50;5.85;;;;;;;6.71;100.00;101175.84;5110451;27;20069;-74
2021/12/11 07:14:23;;;;;;;15.55;5.68;;;;;;;6.93;100.00;101180.53;5106646;27;20504;-73
2021/12/11 07:16:49;;;;;;;13.20;5.72;;;;;;;7.03;100.00;101185.31;5134488;27;20197;-73
2021/12/11 07:19:15;;;;;;;15.35;6.85;;;;;;;7.00;100.00;101192.09;5132506;27;20035;-74
2021/12/11 07:21:41;;;;;;;16.65;6.43;;;;;;;6.99;100.00;101195.91;5132562;27;20116;-75
2021/12/11 07:24:10;;;;;;;15.70;6.65;;;;;;;6.92;100.00;101201.53;5131001;27;20025;-73
2021/12/11 07:26:35;;;;;;;16.25;7.00;;;;;;;6.61;100.00;101209.22;5127531;27;20051;-73
2021/12/11 07:29:11;;;;;;;18.95;7.25;;;;;;;6.80;100.00;101208.97;5126125;27;20464;-73
2021/12/11 07:31:38;;;;;;;17.23;7.70;;;;;;;6.67;100.00;101222.91;5130983;27;20027;-73
2021/12/11 07:34:04;;;;;;;15.93;7.70;;;;;;;6.79;100.00;101226.41;5129019;27;20366;-74
2021/12/11 07:36:30;;;;;;;19.02;8.05;;;;;;;6.45;100.00;101226.34;5132003;27;20111;-74
2021/12/11 07:38:59;;;;;;;19.40;8.63;;;;;;;6.38;100.00;101236.59;5106749;27;20031;-73
2021/12/11 07:41:25;;;;;;;22.52;9.13;;;;;;;6.51;100.00;101254.50;5102356;27;20023;-73
2021/12/11 07:43:51;;;;;;;25.90;10.77;;;;;;;6.63;100.00;101260.72;5113649;27;20046;-73
2021/12/11 07:46:22;;;;;;;24.30;11.25;;;;;;;6.76;100.00;101260.41;5109394;27;20275;-74
2021/12/11 07:48:48;;;;;;;21.98;10.85;;;;;;;6.84;100.00;101250.16;5113066;27;20311;-73
2021/12/11 07:51:14;;;;;;;24.88;11.90;;;;;;;7.02;100.00;101260.84;5117285;27;20378;-74
2021/12/11 07:53:40;;;;;;;27.70;11.75;;;;;;;7.05;100.00;101265.81;5149507;27;20472;-74
2021/12/11 07:56:06;;;;;;;23.27;12.25;;;;;;;7.05;100.00;101278.59;5121966;27;20023;-72
2021/12/11 07:58:34;;;;;;;29.95;12.60;;;;;;;6.78;100.00;101277.34;5126444;27;20162;-74
2021/12/11 08:01:02;;;;;;;29.42;13.15;;;;;;;6.82;100.00;101291.28;5128263;27;20541;-73
2021/12/11 08:03:28;;;;;;;30.38;14.75;;;;;;;6.82;100.00;101296.75;5107416;27;20050;-73
2021/12/11 08:05:55;;;;;;;34.72;15.40;;;;;;;6.43;100.00;101299.31;5124887;27;20115;-74
2021/12/11 08:08:21;;;;;;;37.22;16.02;;;;;;;6.79;100.00;101303.53;5129459;27;20073;-74
2021/12/11 08:10:50;;;;;;;24.77;14.75;;;;;;;6.98;100.00;101306.84;5119841;27;20491;-74
2021/12/11 08:13:16;;;;;;;28.65;15.25;;;;;;;6.98;100.00;101317.75;5145429;27;20469;-72
2021/12/11 08:15:43;;;;;;;30.08;15.25;;;;;;;6.99;100.00;101322.13;5128485;27;20044;-72
2021/12/11 08:18:10;;;;;;;28.77;16.17;;;;;;;6.77;100.00;101318.44;5132451;27;20035;-73
2021/12/11 08:20:38;;;;;;;35.90;16.42;;;;;;;6.35;100.00;101330.47;5129948;27;20138;-74
2021/12/11 08:23:05;;;;;;;31.10;16.92;;;;;;;6.40;100.00;101333.31;5144172;27;20050;-73
2021/12/11 08:25:32;;;;;;;32.50;17.35;;;;;;;6.81;100.00;101342.25;5109536;27;20058;-74
2021/12/11 08:27:58;;;;;;;31.05;15.43;;;;;;;7.09;100.00;101334.28;5122617;27;20038;-74
2021/12/11 08:30:26;;;;;;;36.17;16.73;;;;;;;7.19;100.00;101339.91;5109633;27;20073;-74
2021/12/11 08:32:52;;;;;;;35.47;16.85;;;;;;;7.18;100.00;101346.41;5147866;27;20109;-75
2021/12/11 08:35:18;;;;;;;34.58;17.08;;;;;;;7.06;100.00;101348.41;5147295;27;20543;-75
2021/12/11 08:37:47;;;;;;;33.08;17.20;;;;;;;7.10;100.00;101357.75;5151475;27;20025;-75
2021/12/11 08:40:19;;;;;;;32.58;17.85;;;;;;;7.07;100.00;101353.63;5144830;27;20056;-74
2021/12/11 08:42:46;;;;;;;34.67;17.90;;;;;;;7.06;100.00;101362.03;5106607;27;20022;-74
2021/12/11 08:45:20;;;;;;;32.88;16.20;;;;;;;6.78;100.00;101363.72;5124701;27;20083;-75
2021/12/11 08:47:52;;;;;;;25.75;14.80;;;;;;;6.65;100.00;101366.75;5134885;27;20071;-76
2021/12/11 08:50:22;;;;;;;35.78;15.27;;;;;;;6.40;100.00;101373.34;5144432;27;20042;-74
2021/12/11 08:52:50;;;;;;;37.30;15.35;;;;;;;6.25;100.00;101371.94;5143390;27;20023;-75
2021/12/11 08:55:26;;;;;;;34.97;14.50;;;;;;;6.56;100.00;101390.81;5121185;27;20065;-75
2021/12/11 08:57:52;;;;;;;29.65;15.25;;;;;;;6.74;100.00;101389.78;5107821;27;20095;-75
2021/12/11 09:00:51;;;;;;;36.00;15.68;;;;;;;6.63;100.00;101396.97;5129675;27;20066;-75
2021/12/11 09:03:35;;;;;;;38.72;14.85;;;;;;;6.75;100.00;101405.09;5139654;27;20076;-75
2021/12/11 09:06:13;;;;;;;28.42;14.32;;;;;;;6.87;100.00;101402.31;5114649;27;20061;-75
2021/12/11 09:08:57;;;;;;;31.38;15.57;;;;;;;6.96;100.00;101411.75;5130906;27;20050;-76
2021/12/11 09:11:31;;;;;;;31.80;14.50;;;;;;;7.08;100.00;101411.69;5121496;27;20026;-76
2021/12/11 09:14:12;;;;;;;25.38;13.95;;;;;;;7.25;100.00;101412.56;5110427;27;20033;-74
2021/12/11 09:17:00;;;;;;;26.50;14.90;;;;;;;7.32;100.00;101410.50;5107529;27;20100;-75
2021/12/11 09:19:44;;;;;;;27.83;14.82;;;;;;;7.38;100.00;101414.16;5101820;27;20172;-76
2021/12/11 09:22:18;;;;;;;29.05;14.70;;;;;;;7.44;100.00;101417.78;5137136;27;20051;-75
2021/12/11 09:24:49;;;;;;;26.02;15.57;;;;;;;7.49;100.00;101426.03;5110669;27;20034;-74
2021/12/11 09:27:26;;;;;;;24.95;14.80;;;;;;;7.56;100.00;101429.47;5116990;27;20019;-74
2021/12/11 09:30:06;;;;;;;24.50;14.40;;;;;;;7.61;100.00;101423.22;5110020;27;20019;-74
2021/12/11 09:32:41;;;;;;;29.42;14.63;;;;;;;7.70;100.00;101438.94;5124502;27;20041;-74
2021/12/11 09:35:24;;;;;;;30.98;15.35;;;;;;;7.78;100.00;101439.63;5127114;27;20022;-75
2021/12/11 09:37:54;;;;;;;27.08;13.63;;;;;;;7.89;100.00;101439.53;5122962;27;20095;-75
2021/12/11 09:40:37;;;;;;;28.08;14.02;;;;;;;8.05;100.00;101446.06;5124140;27;20026;-75
2021/12/11 09:43:03;;;;;;;29.40;13.27;;;;;;;8.16;100.00;101447.03;5142049;27;20365;-74
2021/12/11 09:45:43;;;;;;;31.67;14.32;;;;;;;8.28;100.00;101455.94;5122612;27;20035;-74
2021/12/11 09:48:16;;;;;;;20.70;11.38;;;;;;;8.30;100.00;101450.25;5123999;27;20027;-74
2021/12/11 09:50:52;;;;;;;33.38;13.73;;;;;;;8.28;100.00;101446.94;5133720;27;20469;-75
2021/12/11 09:53:23;;;;;;;22.40;10.93;;;;;;;8.46;100.00;101456.75;5124549;27;20032;-74
2021/12/11 09:55:50;;;;;;;24.38;10.73;;;;;;;8.58;100.00;101462.94;5141517;27;20023;-74
2021/12/11 09:58:20;;;;;;;18.08;9.38;;;;;;;8.56;100.00;101461.53;5107507;27;20052;-74
2021/12/11 10:01:08;;;;;;;23.05;10.00;;;;;;;8.74;100.00;101469.44;5118007;27;20027;-74
2021/12/11 10:03:41;;;;;;;19.63;8.15;;;;;;;8.58;100.00;101482.06;5124376;27;20204;-75
2021/12/11 10:06:14;;;;;;;20.33;7.88;;;;;;;8.62;100.00;101480.50;5143760;27;20023;-74
2021/12/11 10:08:46;;;;;;;16.73;8.27;;;;;;;8.79;100.00;101477.69;5126384;27;20035;-74
2021/12/11 10:11:27;;;;;;;19.40;7.97;;;;;;;8.98;100.00;101486.38;5121732;27;20083;-75
2021/12/11 10:13:56;;;;;;;22.75;7.32;;;;;;;8.99;100.00;101489.97;5144011;27;20049;-75
2021/12/11 10:16:25;;;;;;;21.27;7.05;;;;;;;9.00;100.00;101489.72;5142336;27;20053;-74
2021/12/11 10:18:52;;;;;;;12.70;5.85;;;;;;;9.15;100.00;101494.53;5125907;27;20057;-74
2021/12/11 10:21:27;;;;;;;17.88;5.85;;;;;;;9.12;100.00;101488.75;5123520;27;20026;-74
2021/12/11 10:23:54;;;;;;;15.93;6.85;;;;;;;9.15;100.00;101489.06;5144020;27;20022;-74
2021/12/11 10:26:25;;;;;;;15.35;6.03;;;;;;;9.32;100.00;101491.69;5139100;27;20118;-74
2021/12/11 10:28:53;;;;;;;18.38;6.28;;;;;;;9.50;100.00;101497.88;5144567;27;20113;-75
2021/12/11 10:31:28;;;;;;;17.08;5.57;;;;;;;9.56;100.00;101500.41;5124721;27;20019;-73
2021/12/11 10:33:55;;;;;;;12.38;5.35;;;;;;;9.68;100.00;101507.63;5137153;27;20030;-75
2021/12/11 10:36:25;;;;;;;12.82;5.38;;;;;;;9.49;100.00;101512.66;5123006;27;20034;-74
2021/12/11 10:38:52;;;;;;;21.20;7.05;;;;;;;9.30;100.00;101514.94;5108588;27;20019;-74
2021/12/11 10:41:19;;;;;;;14.40;5.32;;;;;;;9.33;100.00;101514.38;5106432;27;20022;-74
2021/12/11 10:44:06;;;;;;;16.90;5.85;;;;;;;9.42;100.00;101517.50;5091324;27;20169;-74
2021/12/11 10:46:41;;;;;;;13.35;5.25;;;;;;;9.16;100.00;101512.56;5102202;27;20064;-74
2021/12/11 10:49:10;;;;;;;11.45;5.85;;;;;;;9.35;100.00;101518.53;5124294;27;20042;-74
2021/12/11 10:51:43;;;;;;;14.27;5.38;;;;;;;9.26;100.00;101524.72;5122919;27;20059;-73
2021/12/11 10:54:09;;;;;;;;;;;;;;;9.08;100.00;101534.91;5125087;27;20472;-73
2021/12/11 10:56:35;;;;;;;13.65;3.55;;;;;;;8.81;100.00;101524.75;5101000;27;20197;-74
2021/12/11 10:59:08;;;;;;;9.63;3.63;;;;;;;9.02;100.00;101527.75;5101472;27;20026;-76
2021/12/11 11:01:40;;;;;;;9.70;3.58;;;;;;;8.89;100.00;101528.13;5112962;27;20031;-74
2021/12/11 11:04:16;;;;;;;9.88;3.60;;;;;;;8.93;100.00;101543.75;5103981;27;20024;-74
2021/12/11 11:06:45;;;;;;;17.05;4.28;;;;;;;8.57;100.00;101540.53;5104824;27;20059;-75
2021/12/11 11:09:11;;;;;;;15.13;4.25;;;;;;;8.75;100.00;101535.88;5129951;27;20838;-75
2021/12/11 11:11:38;;;;;;;12.35;3.30;;;;;;;8.65;100.00;101537.38;5129783;27;20251;-76
2021/12/11 11:14:06;;;;;;;12.45;2.70;;;;;;;8.70;100.00;101536.63;5103617;27;20030;-75
2021/12/11 11:16:33;;;;;;;15.98;2.88;;;;;;;8.75;100.00;101542.16;5112024;27;20011;-74
2021/12/11 11:18:58;;;;;;;13.55;3.03;;;;;;;8.87;100.00;101544.78;5126136;27;20045;-74
2021/12/11 11:21:29;;;;;;;18.85;3.50;;;;;;;8.91;100.00;101545.91;5123214;27;20034;-72
2021/12/11 11:23:55;;;;;;;14.10;2.58;;;;;;;8.84;100.00;101550.75;5144366;27;20022;-75
2021/12/11 11:26:26;;;;;;;13.80;3.40;;;;;;;8.98;100.00;101546.53;5139806;27;20030;-73
2021/12/11 11:28:51;;;;;;;13.85;2.92;;;;;;;9.04;100.00;101544.72;5130896;27;20023;-75
2021/12/11 11:31:23;;;;;;;11.80;3.05;;;;;;;8.67;100.00;101560.91;5124326;27;20384;-73
2021/12/11 11:33:49;;;;;;;13.13;2.15;;;;;;;8.64;100.00;101563.06;5128959;27;20019;-75
2021/12/11 11:36:20;;;;;;;13.23;2.97;;;;;;;8.61;100.00;101574.50;5123499;27;20115;-75
2021/12/11 11:38:52;;;;;;;18.55;3.13;;;;;;;8.79;100.00;101573.38;5107640;27;20023;-74
2021/12/11 11:41:30;;;;;;;15.65;2.90;;;;;;;8.93;100.00;101582.03;5124153;27;20027;-73
2021/12/11 11:43:56;;;;;;;11.80;2.80;;;;;;;8.92;100.00;101582.28;5124671;27;20027;-73
2021/12/11 11:46:24;;;;;;;16.60;2.88;;;;;;;8.74;100.00;101572.47;5131380;27;20374;-73
2021/12/11 11:48:53;;;;;;;15.23;3.88;;;;;;;8.51;100.00;101578.97;5110878;27;20038;-73